Observations for BRIZE NORTON RA, United Kingdom (EGVN)

EGVN 231050Z 20006KT 9999 BKN008 BKN018 15/13 Q1016 GRN NOSIG   
EGVN 231050Z 20006KT 9999 BKN008 BKN018 15/13 Q1016 NOSIG
EGVN 230950Z 20007KT 9999 BKN008 OVC015 14/12 Q1016 TEMPO 6000 -RADZ
EGVN 230950Z 20007KT 9999 BKN008 OVC015 14/12 Q1016 GRN TEMPO 6000 -RADZ GRN
EGVN 230850Z 21005KT 9999 OVC008 13/12 Q1016 TEMPO 6000 -RADZ SCT006
EGVN 230850Z 21005KT 9999 OVC008 13/12 Q1016 GRN TEMPO 6000 -RADZ SCT006 YLO1
EGVN 230750Z 19004KT 9999 FEW006 BKN008 BKN015 12/11 Q1016 GRN TEMPO 6000 -RADZ BKN005 YLO1 
EGVN 230750Z 19004KT 9999 FEW006 BKN008 BKN015 12/11 Q1016 TEMPO 6000 -RADZ BKN005
EGVN 230650Z 21004KT 9999 BKN010 SCT021 BKN050 11/10 Q1016 TEMPO 6000 -RADZ 
EGVN 230650Z 21004KT 9999 BKN010 SCT021 BKN050 11/10 Q1016 GRN TEMPO 6000 -RADZGRN
EGVN 230636Z 21004KT 9999 -RA BKN010 SCT021 BKN070 11/10 Q1016 GRN TEMPO 6000 -RADZ GRN
EGVN 230550Z 21004KT 9999 -RA FEW012 BKN048 11/09 Q1017 BECMG SCT010
EGVN 230550Z 21004KT 9999 -RA FEW012 BKN048 11/09 Q1017 BLU BECMG SCT010 GRN
EGVN 230450Z 22003KT 9999 -RA FEW012 SCT028 BKN050 11/09 Q1017 BLU BECMG BKN010 GRN 
EGVN 230450Z 22003KT 9999 -RA FEW012 SCT028 BKN050 11/09 Q1017 BECMG BKN010
EGVN 230350Z 21003KT 9999 FEW025 SCT050 BKN160 10/09 Q1017 NOSIG
EGVN 230350Z 21003KT 9999 FEW025 SCT050 BKN160 10/09 Q1017 BLU NOSIG
EGVN 230340Z 21003KT CAVOK 10/09 Q1017 BLU TEMPO SCT020 WHT
EGVN 230250Z 24004KT 9999 FEW007 SCT015 BKN140 10/09 Q1018 NOSIG
EGVN 230250Z 24004KT 9999 FEW007 SCT015 BKN140 10/09 Q1018 WHT NOSIG
EGVN 230150Z 23004KT 9999 FEW022 SCT038 BKN220 10/09 Q1018 BLU TEMPO SCT022 WHT 
EGVN 230150Z 23004KT 9999 FEW022 SCT038 BKN220 10/09 Q1018 TEMPO SCT022
EGVN 230050Z 21003KT 9999 FEW030 SCT048 BKN220 10/08 Q1017 NOSIG
EGVN 230050Z 21003KT 9999 FEW030 SCT048 BKN220 10/08 Q1017 BLU NOSIG
EGVN 222350Z 16003KT 9999 FEW030 BKN048 10/07 Q1018 NOSIG   
EGVN 222350Z 16003KT 9999 FEW030 BKN048 10/07 Q1018 BLU NOSIG
EGVN 222250Z 23003KT 9999 FEW030 BKN048 10/07 Q1018 NOSIG   
EGVN 222250Z 23003KT 9999 FEW030 BKN048 10/07 Q1018 BLU NOSIG
EGVN 222150Z 25006KT 9999 BKN048 11/07 Q1018 NOSIG  
EGVN 222150Z 25006KT 9999 BKN048 11/07 Q1018 BLU NOSIG
EGVN 222050Z 26005KT CAVOK 10/08 Q1018 BLU NOSIG
EGVN 222050Z 26005KT CAVOK 10/08 Q1018 NOSIG
EGVN 221950Z 24006KT CAVOK 10/07 Q1017 NOSIG
EGVN 221950Z 24006KT CAVOK 10/07 Q1017 BLU NOSIG
EGVN 221850Z 25005KT CAVOK 10/06 Q1017 BLU NOSIG
EGVN 221850Z 25005KT CAVOK 10/06 Q1017 NOSIG
EGVN 221750Z 27006KT 9999 FEW030 10/06 Q1016 BLU NOSIG  
EGVN 221750Z 27006KT 9999 FEW030 10/06 Q1016 NOSIG
EGVN 221650Z 27007KT 9999 VCSH FEW030 SCT036 12/06 Q1016 BLU NOSIG  
EGVN 221650Z 27007KT 9999 VCSH FEW030 SCT036 12/06 Q1016 NOSIG
EGVN 221550Z 27006KT 9999 FEW030 BKN048 12/07 Q1015 NOSIG   
EGVN 221550Z 27006KT 9999 FEW030 BKN048 12/07 Q1015 BLU NOSIG
EGVN 221450Z 28011KT 9999 FEW033 BKN043 13/06 Q1014 NOSIG   
EGVN 221450Z 28011KT 9999 FEW033 BKN043 13/06 Q1014 BLU NOSIG
EGVN 221350Z 26007KT 9999 -SHRA FEW026 SCT028 BKN040 12/06 Q1014 BLU TEMPO 27015G25KT BLU   
EGVN 221350Z 26007KT 9999 -SHRA FEW026 SCT028 BKN040 12/06 Q1014 TEMPO 27015G25KT
EGVN 221250Z 28012KT 9999 BKN040 13/03 Q1014 NOSIG  
EGVN 221250Z 28012KT 9999 BKN040 13/03 Q1014 BLU NOSIG
EGVN 221150Z 29013KT 9999 BKN042 12/02 Q1014 NOSIG  
EGVN 221150Z 29013KT 9999 BKN042 12/02 Q1014 BLU NOSIG
EGVN 221050Z 28012KT 9999 BKN040 12/02 Q1013 NOSIG  
EGVN 221050Z 28012KT 9999 BKN040 12/02 Q1013 BLU NOSIG